Time;durP1;ratioP1;P1;durP2;ratioP2;P2;SDS_P1;SDS_P2;PMS_P1;PMS_P2;Temp;Humidity;BMP_temperature;BMP_pressure;BME280_temperature;BME280_humidity;BME280_pressure;Samples;Min_cycle;Max_cycle;Signal;HPM_P1;HPM_P2
2022/04/26 03:36:50;;;;;;;42.20;16.95;;;;;;;;;;5045974;28;20537;-73
2022/04/26 03:39:15;;;;;;;37.58;15.82;;;;;;;;;;5035413;28;20033;-73
2022/04/26 03:41:41;;;;;;;36.35;14.10;;;;;;;;;;5042110;28;20037;-73
2022/04/26 03:44:07;;;;;;;29.60;14.52;;;;;;;;;;5041953;28;20640;-73
2022/04/26 03:46:32;;;;;;;29.65;12.63;;;;;;;;;;5037336;28;20576;-73
2022/04/26 03:48:57;;;;;;;30.17;12.63;;;;;;;;;;5041853;28;20458;-73
2022/04/26 03:51:23;;;;;;;25.25;11.13;;;;;;;;;;5041034;28;20024;-73
2022/04/26 03:53:48;;;;;;;25.10;10.10;;;;;;;;;;5037894;28;20072;-72
2022/04/26 03:56:14;;;;;;;22.30;10.85;;;;;;;;;;5040470;28;20039;-73
2022/04/26 03:58:39;;;;;;;21.55;9.70;;;;;;;;;;5045197;28;20071;-72
2022/04/26 04:01:04;;;;;;;20.48;9.63;;;;;;;;;;5046650;28;20044;-73
2022/04/26 04:03:30;;;;;;;17.85;7.72;;;;;;;;;;5039709;28;20427;-73
2022/04/26 04:05:55;;;;;;;16.15;7.13;;;;;;;;;;5029443;28;20044;-71
2022/04/26 04:08:21;;;;;;;17.83;8.23;;;;;;;;;;5034026;28;20124;-73
2022/04/26 04:10:46;;;;;;;16.33;7.47;;;;;;;;;;5036106;28;20536;-73
2022/04/26 04:13:12;;;;;;;17.10;7.45;;;;;;;;;;5037199;28;20371;-73
2022/04/26 04:15:37;;;;;;;14.80;7.18;;;;;;;;;;5031451;28;20032;-73
2022/04/26 04:18:03;;;;;;;11.43;6.10;;;;;;;;;;5042568;28;20414;-73
2022/04/26 04:20:29;;;;;;;13.18;6.05;;;;;;;;;;5036400;28;20036;-73
2022/04/26 04:22:56;;;;;;;12.23;5.45;;;;;;;;;;5041476;28;20126;-74
2022/04/26 04:25:21;;;;;;;9.60;5.47;;;;;;;;;;5033307;28;20582;-75
2022/04/26 04:27:47;;;;;;;13.05;5.07;;;;;;;;;;5040410;28;20143;-72
2022/04/26 04:30:13;;;;;;;11.00;5.72;;;;;;;;;;5033236;28;20487;-72
2022/04/26 04:32:38;;;;;;;8.75;5.07;;;;;;;;;;5045827;28;20131;-72
2022/04/26 04:35:05;;;;;;;8.55;5.03;;;;;;;;;;5029692;28;20045;-72
2022/04/26 04:37:30;;;;;;;12.70;4.93;;;;;;;;;;5036353;28;20030;-72
2022/04/26 04:39:56;;;;;;;8.77;4.60;;;;;;;;;;5030861;28;20039;-72
2022/04/26 04:42:21;;;;;;;8.40;4.30;;;;;;;;;;5037319;28;20022;-72
2022/04/26 04:44:46;;;;;;;7.43;4.07;;;;;;;;;;5039832;28;20037;-72
2022/04/26 04:47:12;;;;;;;8.10;4.53;;;;;;;;;;5039469;28;20040;-73
2022/04/26 04:49:37;;;;;;;9.95;4.10;;;;;;;;;;5036537;28;20044;-74
2022/04/26 04:52:03;;;;;;;6.53;3.75;;;;;;;;;;5043932;28;20128;-73
2022/04/26 04:54:28;;;;;;;8.02;4.15;;;;;;;;;;5040267;28;20040;-74
2022/04/26 04:56:53;;;;;;;7.40;4.13;;;;;;;;;;5043470;28;20589;-74
2022/04/26 04:59:19;;;;;;;9.35;4.50;;;;;;;;;;5036427;28;20535;-73
2022/04/26 05:01:44;;;;;;;7.72;4.00;;;;;;;;;;5041755;28;20051;-73
2022/04/26 05:04:09;;;;;;;8.13;4.20;;;;;;;;;;5036120;28;20079;-72
2022/04/26 05:06:34;;;;;;;9.30;4.88;;;;;;;;;;5044905;28;20040;-73
2022/04/26 05:09:00;;;;;;;9.05;4.47;;;;;;;;;;5037146;28;20052;-72
2022/04/26 05:11:25;;;;;;;8.80;4.68;;;;;;;;;;5036556;28;20038;-72
2022/04/26 05:13:51;;;;;;;9.25;3.97;;;;;;;;;;5041234;28;20136;-72
2022/04/26 05:16:16;;;;;;;8.27;4.53;;;;;;;;;;5030091;28;20041;-73
2022/04/26 05:18:41;;;;;;;10.60;4.22;;;;;;;;;;5042230;28;20498;-72
2022/04/26 05:21:13;;;;;;;7.00;3.92;;;;;;;;;;5041518;28;20024;-73
2022/04/26 05:26:22;;;;;;;7.72;3.75;;;;;;;;;;5045518;28;20442;-73
2022/04/26 05:28:48;;;;;;;8.00;3.88;;;;;;;;;;5040431;28;20503;-72
2022/04/26 05:31:14;;;;;;;6.13;3.63;;;;;;;;;;5036140;28;20033;-73
2022/04/26 05:33:39;;;;;;;6.47;3.80;;;;;;;;;;5039714;28;20060;-72
2022/04/26 05:36:05;;;;;;;9.10;4.00;;;;;;;;;;5040014;28;20063;-73
2022/04/26 05:38:30;;;;;;;7.90;4.20;;;;;;;;;;5044709;28;20061;-73
2022/04/26 05:40:56;;;;;;;7.20;4.00;;;;;;;;;;5041472;28;20087;-73
2022/04/26 05:43:21;;;;;;;8.23;3.70;;;;;;;;;;5043735;28;20044;-73
2022/04/26 05:45:46;;;;;;;7.97;4.20;;;;;;;;;;5033096;28;20081;-73
2022/04/26 05:48:13;;;;;;;7.88;3.60;;;;;;;;;;5036262;28;20021;-73
2022/04/26 05:50:39;;;;;;;10.35;4.53;;;;;;;;;;5046983;28;20106;-73
2022/04/26 05:53:04;;;;;;;7.95;3.97;;;;;;;;;;5048848;28;20041;-73
2022/04/26 05:55:30;;;;;;;11.18;3.90;;;;;;;;;;5035980;28;20044;-73
2022/04/26 05:57:55;;;;;;;8.75;4.00;;;;;;;;;;5040191;28;20021;-73
2022/04/26 06:00:20;;;;;;;8.27;4.22;;;;;;;;;;5041792;28;20111;-74
2022/04/26 06:02:46;;;;;;;7.28;4.38;;;;;;;;;;5038188;28;20036;-73
2022/04/26 06:05:12;;;;;;;9.10;4.00;;;;;;;;;;5045924;28;20045;-73
2022/04/26 06:07:37;;;;;;;7.63;3.92;;;;;;;;;;5036701;28;20040;-73
2022/04/26 06:10:03;;;;;;;10.20;4.20;;;;;;;;;;5031670;28;20128;-73
2022/04/26 06:12:28;;;;;;;12.40;4.50;;;;;;;;;;5043584;28;20036;-73
2022/04/26 06:14:54;;;;;;;7.65;4.20;;;;;;;;;;5045399;28;20045;-73
2022/04/26 06:17:20;;;;;;;8.98;4.22;;;;;;;;;;5031803;28;20503;-73
2022/04/26 06:19:45;;;;;;;9.02;4.38;;;;;;;;;;5029742;28;20082;-73
2022/04/26 06:22:11;;;;;;;13.20;3.83;;;;;;;;;;5035558;28;20041;-73
2022/04/26 06:24:36;;;;;;;8.70;3.65;;;;;;;;;;5038300;28;20033;-72
2022/04/26 06:27:02;;;;;;;6.50;3.88;;;;;;;;;;5039805;28;20040;-72
2022/04/26 06:29:28;;;;;;;6.45;3.53;;;;;;;;;;5040341;28;20033;-73
2022/04/26 06:31:53;;;;;;;8.32;4.28;;;;;;;;;;5036205;28;20129;-72
2022/04/26 06:34:18;;;;;;;7.55;3.70;;;;;;;;;;5043291;28;20072;-73
2022/04/26 06:36:44;;;;;;;7.75;4.00;;;;;;;;;;5046748;28;20021;-72
2022/04/26 06:39:09;;;;;;;7.43;4.00;;;;;;;;;;5033446;28;20043;-73
2022/04/26 06:41:34;;;;;;;9.30;4.60;;;;;;;;;;5041592;28;20042;-73
2022/04/26 06:44:00;;;;;;;8.70;4.25;;;;;;;;;;5039371;28;20042;-73
2022/04/26 06:46:25;;;;;;;7.18;4.22;;;;;;;;;;5039857;28;20426;-74
2022/04/26 06:48:50;;;;;;;9.20;4.72;;;;;;;;;;5039104;28;20426;-73
2022/04/26 06:51:16;;;;;;;8.43;4.50;;;;;;;;;;5041612;28;20479;-73
2022/04/26 06:53:42;;;;;;;8.75;4.40;;;;;;;;;;5037065;28;20041;-73
2022/04/26 06:56:07;;;;;;;11.95;4.63;;;;;;;;;;5034774;28;20542;-73
2022/04/26 06:58:33;;;;;;;11.80;4.60;;;;;;;;;;5034442;28;20450;-74
2022/04/26 07:01:00;;;;;;;8.93;4.85;;;;;;;;;;5040145;28;20057;-73
2022/04/26 07:03:26;;;;;;;8.95;5.10;;;;;;;;;;5037635;28;20127;-74
2022/04/26 07:05:52;;;;;;;8.63;4.95;;;;;;;;;;5040689;28;20065;-74
2022/04/26 07:08:18;;;;;;;9.98;4.07;;;;;;;;;;5035442;28;20549;-73
2022/04/26 07:10:43;;;;;;;7.40;4.50;;;;;;;;;;5034577;28;20037;-73
2022/04/26 07:13:08;;;;;;;7.45;3.72;;;;;;;;;;5034073;28;20053;-73
2022/04/26 07:15:34;;;;;;;8.38;4.07;;;;;;;;;;5036030;28;20035;-73
2022/04/26 07:17:59;;;;;;;10.32;5.20;;;;;;;;;;5037697;28;20048;-74
2022/04/26 07:20:26;;;;;;;8.73;4.30;;;;;;;;;;5039739;28;20514;-74
2022/04/26 07:22:52;;;;;;;8.70;4.22;;;;;;;;;;5035124;28;20036;-73
2022/04/26 07:25:18;;;;;;;10.93;4.90;;;;;;;;;;5033357;28;20037;-74
2022/04/26 07:27:43;;;;;;;9.23;4.60;;;;;;;;;;5040244;28;20029;-73
2022/04/26 07:30:09;;;;;;;9.40;4.82;;;;;;;;;;5033631;28;20025;-74
2022/04/26 07:35:18;;;;;;;8.68;4.32;;;;;;;;;;5037406;28;20422;-70
2022/04/26 07:37:44;;;;;;;10.55;5.15;;;;;;;;;;5034935;28;20033;-71
2022/04/26 07:40:10;;;;;;;9.00;4.72;;;;;;;;;;5030450;28;20037;-71
2022/04/26 07:42:35;;;;;;;12.07;4.18;;;;;;;;;;5029636;28;20021;-71
2022/04/26 07:45:01;;;;;;;6.45;4.20;;;;;;;;;;5030640;28;20033;-71
2022/04/26 07:47:26;;;;;;;10.02;4.30;;;;;;;;;;5030274;28;20076;-70
2022/04/26 07:49:54;;;;;;;6.38;3.90;;;;;;;;;;5035214;28;20045;-71
2022/04/26 07:52:20;;;;;;;7.97;4.28;;;;;;;;;;5037396;28;20166;-71
2022/04/26 07:54:46;;;;;;;8.55;4.22;;;;;;;;;;5033865;28;20126;-70
2022/04/26 07:57:12;;;;;;;6.35;3.95;;;;;;;;;;5030786;28;20637;-70
2022/04/26 07:59:37;;;;;;;8.68;3.80;;;;;;;;;;5032284;28;20033;-71
2022/04/26 08:02:07;;;;;;;7.53;3.83;;;;;;;;;;5037562;28;20060;-70
2022/04/26 08:04:32;;;;;;;8.88;4.22;;;;;;;;;;5035302;28;20052;-70
2022/04/26 08:06:57;;;;;;;7.05;3.55;;;;;;;;;;5036647;28;20045;-70
2022/04/26 08:09:23;;;;;;;7.07;4.07;;;;;;;;;;5037984;28;20029;-70
2022/04/26 08:11:49;;;;;;;7.97;4.72;;;;;;;;;;5035187;28;20056;-70
2022/04/26 08:14:15;;;;;;;9.40;4.20;;;;;;;;;;5040394;28;20067;-70
2022/04/26 08:16:40;;;;;;;5.18;2.92;;;;;;;;;;5030196;28;20474;-70
2022/04/26 08:19:08;;;;;;;7.72;4.18;;;;;;;;;;5030377;28;20044;-70
2022/04/26 08:21:34;;;;;;;5.68;3.78;;;;;;;;;;5033733;28;20490;-70
2022/04/26 08:29:27;;;;;;;7.00;3.97;;;;;;;;;;5036436;28;19931;-70
2022/04/26 08:31:55;;;;;;;9.52;4.60;;;;;;;;;;5028836;28;20045;-70
2022/04/26 08:34:21;;;;;;;9.25;4.45;;;;;;;;;;5031992;28;20058;-70
2022/04/26 08:36:46;;;;;;;7.75;4.50;;;;;;;;;;5028237;28;20034;-70
2022/04/26 08:39:11;;;;;;;10.52;4.57;;;;;;;;;;5032748;28;20029;-70
2022/04/26 08:41:37;;;;;;;7.47;4.00;;;;;;;;;;5036522;28;20133;-70
2022/04/26 08:44:08;;;;;;;16.15;4.50;;;;;;;;;;5033200;28;20098;-71
2022/04/26 08:52:06;;;;;;;;;;;;;;;;;;5036545;28;20170;-70
2022/04/26 08:54:32;;;;;;;12.00;5.15;;;;;;;;;;5034133;28;20032;-70
2022/04/26 08:57:01;;;;;;;8.95;4.95;;;;;;;;;;5037508;28;20113;-70
2022/04/26 08:59:27;;;;;;;9.45;5.43;;;;;;;;;;5041336;28;20041;-70
2022/04/26 09:02:20;;;;;;;9.38;5.10;;;;;;;;;;5038611;28;20375;-70
2022/04/26 09:04:50;;;;;;;9.35;5.50;;;;;;;;;;5033007;28;20033;-70
2022/04/26 09:07:36;;;;;;;9.25;5.00;;;;;;;;;;5035914;28;20109;-70
2022/04/26 09:10:22;;;;;;;10.90;5.88;;;;;;;;;;5037828;28;20083;-70
2022/04/26 09:12:56;;;;;;;10.70;5.80;;;;;;;;;;5037475;28;20042;-71
2022/04/26 09:15:22;;;;;;;10.65;5.43;;;;;;;;;;5036416;28;20029;-71
2022/04/26 09:17:47;;;;;;;9.13;5.38;;;;;;;;;;5035996;28;20048;-71
2022/04/26 09:20:13;;;;;;;9.10;5.43;;;;;;;;;;5036391;28;20049;-69
2022/04/26 09:22:39;;;;;;;10.52;6.18;;;;;;;;;;5039142;28;20040;-69
2022/04/26 09:25:06;;;;;;;9.98;5.97;;;;;;;;;;5036494;28;20041;-71
2022/04/26 09:27:37;;;;;;;11.48;5.90;;;;;;;;;;5039202;28;20112;-71
2022/04/26 09:30:11;;;;;;;10.52;5.95;;;;;;;;;;5038280;28;20067;-71
2022/04/26 09:32:46;;;;;;;;;;;;;;;;;;5034754;28;20396;-71
2022/04/26 09:35:20;;;;;;;11.02;6.00;;;;;;;;;;5040097;28;19929;-71
2022/04/26 09:37:45;;;;;;;8.70;5.95;;;;;;;;;;5036962;28;20040;-71
2022/04/26 09:40:11;;;;;;;13.05;6.10;;;;;;;;;;5033539;28;20591;-71
2022/04/26 09:42:36;;;;;;;16.00;6.25;;;;;;;;;;5032755;28;20025;-71
2022/04/26 09:45:09;;;;;;;12.73;6.20;;;;;;;;;;5041483;28;20045;-71
2022/04/26 09:47:41;;;;;;;13.30;6.32;;;;;;;;;;5039397;28;20526;-71
2022/04/26 09:50:12;;;;;;;10.15;6.32;;;;;;;;;;5033803;28;20044;-71
2022/04/26 09:52:38;;;;;;;12.90;6.75;;;;;;;;;;5048642;28;20438;-71
2022/04/26 09:55:08;;;;;;;10.52;6.30;;;;;;;;;;5035902;28;20450;-71
2022/04/26 09:57:36;;;;;;;12.80;7.03;;;;;;;;;;5033463;28;20885;-71
2022/04/26 10:00:09;;;;;;;13.48;6.10;;;;;;;;;;5042092;28;20577;-71
2022/04/26 10:02:36;;;;;;;8.55;5.43;;;;;;;;;;5035229;28;20077;-71
2022/04/26 10:05:04;;;;;;;10.98;5.47;;;;;;;;;;5032159;28;20452;-71
2022/04/26 10:07:37;;;;;;;15.10;7.57;;;;;;;;;;5032509;28;20524;-71
2022/04/26 10:10:06;;;;;;;10.32;4.90;;;;;;;;;;5041670;28;20098;-70
2022/04/26 10:12:32;;;;;;;8.23;4.47;;;;;;;;;;5035510;28;20036;-71
2022/04/26 10:15:00;;;;;;;9.05;5.07;;;;;;;;;;5041676;28;20073;-71
2022/04/26 10:17:26;;;;;;;7.88;4.60;;;;;;;;;;5038116;28;21371;-71
2022/04/26 10:19:51;;;;;;;11.45;5.18;;;;;;;;;;5035637;28;20033;-71
2022/04/26 10:22:56;;;;;;;8.25;4.70;;;;;;;;;;5036144;28;20044;-71
2022/04/26 10:25:23;;;;;;;;;;;;;;;;;;5037876;28;20053;-72
2022/04/26 10:28:16;;;;;;;7.55;4.60;;;;;;;;;;5047939;28;19947;-71
2022/04/26 10:30:52;;;;;;;9.95;4.70;;;;;;;;;;5030496;28;20021;-71
2022/04/26 10:33:37;;;;;;;7.68;3.90;;;;;;;;;;5041154;28;20021;-71
2022/04/26 10:36:28;;;;;;;6.45;4.13;;;;;;;;;;5031714;28;20077;-71
2022/04/26 10:39:05;;;;;;;10.55;4.75;;;;;;;;;;5038698;28;20041;-71
2022/04/26 10:41:41;;;;;;;6.57;4.57;;;;;;;;;;5034721;28;20094;-71
2022/04/26 10:44:13;;;;;;;7.05;4.90;;;;;;;;;;5033979;28;20084;-71
2022/04/26 10:46:50;;;;;;;6.95;4.65;;;;;;;;;;5029904;28;20046;-71
2022/04/26 10:49:24;;;;;;;8.38;5.15;;;;;;;;;;5034058;28;20052;-71
2022/04/26 10:51:55;;;;;;;11.38;6.55;;;;;;;;;;5036909;28;20033;-71
2022/04/26 10:54:48;;;;;;;13.00;6.38;;;;;;;;;;5036835;28;20036;-71
2022/04/26 10:57:18;;;;;;;8.40;5.65;;;;;;;;;;5034624;28;20414;-71
2022/04/26 10:59:49;;;;;;;9.80;5.82;;;;;;;;;;5037220;28;20037;-71
2022/04/26 11:02:16;;;;;;;10.00;6.45;;;;;;;;;;5037045;28;20045;-71
2022/04/26 11:04:42;;;;;;;9.30;5.72;;;;;;;;;;5030595;28;20550;-71
2022/04/26 11:07:18;;;;;;;9.15;5.45;;;;;;;;;;5031689;28;20033;-71
2022/04/26 11:09:50;;;;;;;8.98;5.90;;;;;;;;;;5028493;28;20025;-71
2022/04/26 11:12:19;;;;;;;10.02;6.50;;;;;;;;;;5035531;28;20055;-71
2022/04/26 11:14:47;;;;;;;12.00;6.75;;;;;;;;;;5039686;28;20044;-71
2022/04/26 11:17:17;;;;;;;11.13;6.38;;;;;;;;;;5032578;28;20538;-71
2022/04/26 11:19:51;;;;;;;9.68;5.63;;;;;;;;;;5039025;28;20585;-71
2022/04/26 11:22:18;;;;;;;12.73;5.47;;;;;;;;;;5035995;28;20042;-71
2022/04/26 11:30:29;;;;;;;7.53;5.45;;;;;;;;;;5036029;28;20704;-72
2022/04/26 11:33:07;;;;;;;9.30;5.43;;;;;;;;;;5029804;28;20038;-71
2022/04/26 11:35:34;;;;;;;7.97;5.30;;;;;;;;;;5034269;28;20045;-71
2022/04/26 11:38:06;;;;;;;18.40;13.73;;;;;;;;;;5039514;28;20061;-72
2022/04/26 11:40:34;;;;;;;9.45;5.38;;;;;;;;;;5031012;28;20044;-72
2022/04/26 11:43:19;;;;;;;8.70;5.47;;;;;;;;;;5034175;28;20041;-71
2022/04/26 11:45:47;;;;;;;8.77;5.05;;;;;;;;;;5033916;28;20388;-71
2022/04/26 11:48:20;;;;;;;8.57;4.97;;;;;;;;;;5030740;28;20479;-71
2022/04/26 11:50:50;;;;;;;11.45;5.47;;;;;;;;;;5037829;28;20040;-71
2022/04/26 11:53:18;;;;;;;7.60;4.47;;;;;;;;;;5032231;28;20063;-71
2022/04/26 11:55:46;;;;;;;7.78;4.63;;;;;;;;;;5029660;28;20116;-71
2022/04/26 11:58:13;;;;;;;18.15;5.57;;;;;;;;;;5033007;28;20041;-71
2022/04/26 12:01:04;;;;;;;7.72;4.97;;;;;;;;;;5034296;28;20035;-71
2022/04/26 12:03:38;;;;;;;11.07;5.10;;;;;;;;;;5034246;28;20037;-71
2022/04/26 12:06:05;;;;;;;15.15;5.10;;;;;;;;;;5030458;28;20045;-72
2022/04/26 12:08:54;;;;;;;8.45;5.07;;;;;;;;;;5041054;28;20037;-71
2022/04/26 12:11:21;;;;;;;8.15;5.22;;;;;;;;;;5039529;28;20510;-71
2022/04/26 12:14:14;;;;;;;7.90;4.60;;;;;;;;;;5028178;28;20523;-71
2022/04/26 12:16:55;;;;;;;8.35;5.00;;;;;;;;;;5035825;28;20047;-72
2022/04/26 12:19:32;;;;;;;9.65;5.25;;;;;;;;;;5027358;28;20033;-71
2022/04/26 12:22:01;;;;;;;9.10;5.55;;;;;;;;;;5032460;28;21148;-71
2022/04/26 12:24:28;;;;;;;10.90;5.05;;;;;;;;;;5039862;28;20049;-71
2022/04/26 12:27:04;;;;;;;9.35;5.00;;;;;;;;;;5033398;28;20045;-71
2022/04/26 12:29:39;;;;;;;8.70;4.93;;;;;;;;;;5030644;28;20042;-71
2022/04/26 12:32:06;;;;;;;8.60;4.93;;;;;;;;;;5031456;28;20510;-71
2022/04/26 12:34:32;;;;;;;9.35;5.65;;;;;;;;;;5030186;28;20056;-71
2022/04/26 12:37:10;;;;;;;7.55;5.20;;;;;;;;;;5040226;28;20489;-71
2022/04/26 12:39:44;;;;;;;9.18;5.28;;;;;;;;;;5035552;28;20025;-71
2022/04/26 12:42:12;;;;;;;11.63;5.32;;;;;;;;;;5031548;28;20581;-71
2022/04/26 12:44:52;;;;;;;11.07;5.80;;;;;;;;;;5037720;28;20070;-70
2022/04/26 12:52:53;;;;;;;12.15;5.68;;;;;;;;;;5040665;28;20473;-71
2022/04/26 12:55:36;;;;;;;7.72;5.13;;;;;;;;;;5036611;28;20100;-71
2022/04/26 12:58:04;;;;;;;7.38;5.05;;;;;;;;;;5028955;28;20037;-71
2022/04/26 13:00:30;;;;;;;9.45;5.35;;;;;;;;;;5036386;28;20032;-71
2022/04/26 13:02:58;;;;;;;16.10;6.50;;;;;;;;;;5026463;28;20029;-71
2022/04/26 13:05:23;;;;;;;8.65;5.25;;;;;;;;;;5035115;28;20056;-72
2022/04/26 13:07:49;;;;;;;8.15;4.70;;;;;;;;;;5045831;28;20433;-71
2022/04/26 13:10:17;;;;;;;9.38;5.53;;;;;;;;;;5039700;28;20045;-71
2022/04/26 13:12:43;;;;;;;8.25;5.60;;;;;;;;;;5030853;28;20434;-71
2022/04/26 13:15:09;;;;;;;7.45;5.47;;;;;;;;;;5033277;28;20417;-71
2022/04/26 13:17:38;;;;;;;10.10;6.38;;;;;;;;;;5031736;28;20052;-71
2022/04/26 13:20:05;;;;;;;8.52;5.10;;;;;;;;;;5025476;28;20076;-71
2022/04/26 13:22:32;;;;;;;10.48;5.35;;;;;;;;;;5033120;28;20040;-71
2022/04/26 13:24:57;;;;;;;9.82;5.32;;;;;;;;;;5033468;28;20099;-71
2022/04/26 13:27:23;;;;;;;10.20;5.25;;;;;;;;;;5033206;28;20064;-71
2022/04/26 13:29:50;;;;;;;8.77;5.38;;;;;;;;;;5033402;28;20402;-71
2022/04/26 13:32:17;;;;;;;8.80;5.78;;;;;;;;;;5030968;28;20037;-71
2022/04/26 13:34:43;;;;;;;8.63;5.18;;;;;;;;;;5037321;28;20037;-71
2022/04/26 13:37:09;;;;;;;8.38;5.53;;;;;;;;;;5037255;28;20049;-71
2022/04/26 13:39:35;;;;;;;8.65;5.57;;;;;;;;;;5036690;28;20502;-71
2022/04/26 13:42:01;;;;;;;10.98;5.60;;;;;;;;;;5035271;28;20037;-71
2022/04/26 13:44:26;;;;;;;9.48;5.70;;;;;;;;;;5033381;28;20579;-71
2022/04/26 13:46:53;;;;;;;8.90;6.25;;;;;;;;;;5038822;28;20052;-71
2022/04/26 13:49:18;;;;;;;10.55;5.88;;;;;;;;;;5031599;28;20041;-71
2022/04/26 13:51:44;;;;;;;9.70;5.40;;;;;;;;;;5041562;28;20422;-71
2022/04/26 13:54:09;;;;;;;8.70;5.45;;;;;;;;;;5040860;28;20095;-71
2022/04/26 13:56:34;;;;;;;8.75;5.40;;;;;;;;;;5028743;28;20049;-71
2022/04/26 13:59:00;;;;;;;9.48;6.15;;;;;;;;;;5027495;28;20132;-71
2022/04/26 14:01:25;;;;;;;9.60;5.78;;;;;;;;;;5033979;28;20041;-71
2022/04/26 14:03:50;;;;;;;8.73;5.72;;;;;;;;;;5038605;28;20037;-70
2022/04/26 14:06:21;;;;;;;9.52;5.45;;;;;;;;;;5036043;28;20079;-70
2022/04/26 14:08:51;;;;;;;9.43;5.70;;;;;;;;;;5037416;28;20061;-72
2022/04/26 14:11:17;;;;;;;8.27;5.35;;;;;;;;;;5034915;28;20116;-71
2022/04/26 14:21:55;;;;;;;8.90;5.85;;;;;;;;;;5043753;28;20103;-71
2022/04/26 14:24:21;;;;;;;8.80;6.03;;;;;;;;;;5030861;28;20033;-71
2022/04/26 14:26:46;;;;;;;11.05;6.55;;;;;;;;;;5039228;28;20040;-71
2022/04/26 14:29:12;;;;;;;8.82;6.57;;;;;;;;;;5038828;28;20105;-71
2022/04/26 14:31:38;;;;;;;10.02;6.40;;;;;;;;;;5036239;28;20647;-71
2022/04/26 14:34:04;;;;;;;10.55;7.35;;;;;;;;;;5037674;28;20044;-71
2022/04/26 14:36:29;;;;;;;8.68;6.63;;;;;;;;;;5038076;28;20075;-71
2022/04/26 14:38:54;;;;;;;10.88;7.97;;;;;;;;;;5038491;28;20042;-71
2022/04/26 14:41:20;;;;;;;11.93;7.80;;;;;;;;;;5033539;28;20069;-71
2022/04/26 14:43:45;;;;;;;9.73;6.82;;;;;;;;;;5032063;28;20028;-69
2022/04/26 14:46:11;;;;;;;14.27;7.20;;;;;;;;;;5029793;28;20030;-71
2022/04/26 14:48:38;;;;;;;12.68;7.85;;;;;;;;;;5030647;28;20259;-71
2022/04/26 14:51:04;;;;;;;11.60;6.97;;;;;;;;;;5030332;28;20053;-71
2022/04/26 14:53:30;;;;;;;11.38;6.80;;;;;;;;;;5030353;28;20045;-71
2022/04/26 14:55:58;;;;;;;12.90;8.27;;;;;;;;;;5043547;28;20037;-71
2022/04/26 14:58:23;;;;;;;11.85;7.07;;;;;;;;;;5031508;28;20729;-71
2022/04/26 15:00:48;;;;;;;9.75;7.75;;;;;;;;;;5030070;28;20094;-71
2022/04/26 15:03:14;;;;;;;12.15;7.50;;;;;;;;;;5042956;28;20700;-71
2022/04/26 15:05:39;;;;;;;12.43;7.18;;;;;;;;;;5037830;28;20490;-71
2022/04/26 15:10:49;;;;;;;12.27;7.20;;;;;;;;;;5048382;28;20114;-71
2022/04/26 15:18:41;;;;;;;;;;;;;;;;;;5032498;28;20588;-70
2022/04/26 15:21:09;;;;;;;8.83;6.57;;;;;;;;;;5036816;28;19905;-70
2022/04/26 15:23:35;;;;;;;11.65;7.18;;;;;;;;;;5040010;28;20294;-69
2022/04/26 15:26:03;;;;;;;11.20;6.88;;;;;;;;;;5036285;28;20728;-70
2022/04/26 15:28:30;;;;;;;9.85;6.57;;;;;;;;;;5037016;28;20116;-70
2022/04/26 15:30:55;;;;;;;13.75;7.53;;;;;;;;;;5035424;28;20028;-70
2022/04/26 15:33:22;;;;;;;18.30;7.22;;;;;;;;;;5035158;28;20032;-70
2022/04/26 15:35:47;;;;;;;9.60;6.65;;;;;;;;;;5035617;28;20038;-70
2022/04/26 15:38:13;;;;;;;11.60;7.13;;;;;;;;;;5034717;28;20820;-71
2022/04/26 15:40:40;;;;;;;9.32;6.65;;;;;;;;;;5034039;28;20041;-71
2022/04/26 15:43:06;;;;;;;10.85;7.97;;;;;;;;;;5035406;28;20174;-71
2022/04/26 15:45:31;;;;;;;10.15;7.15;;;;;;;;;;5037996;28;20064;-71
2022/04/26 15:47:58;;;;;;;12.43;7.25;;;;;;;;;;5040889;28;20048;-71
2022/04/26 15:50:23;;;;;;;10.43;6.47;;;;;;;;;;5033861;28;20045;-71
2022/04/26 15:52:50;;;;;;;11.55;6.78;;;;;;;;;;5029869;28;20095;-71
2022/04/26 15:55:16;;;;;;;12.45;6.82;;;;;;;;;;5029891;28;20430;-71
2022/04/26 15:57:44;;;;;;;11.80;6.55;;;;;;;;;;5036096;28;20024;-71
2022/04/26 16:00:10;;;;;;;10.65;6.28;;;;;;;;;;5037152;28;20026;-71
2022/04/26 16:02:36;;;;;;;11.27;6.72;;;;;;;;;;5032915;28;20041;-71
2022/04/26 16:05:02;;;;;;;13.15;6.70;;;;;;;;;;5048259;28;20672;-71
2022/04/26 16:07:28;;;;;;;9.75;6.30;;;;;;;;;;5038311;28;20041;-71
2022/04/26 16:20:48;;;;;;;12.45;6.40;;;;;;;;;;5035342;28;19963;-70
2022/04/26 16:23:14;;;;;;;9.45;5.93;;;;;;;;;;5036762;28;20303;-71
2022/04/26 16:25:39;;;;;;;10.85;6.07;;;;;;;;;;5034070;28;20043;-70
2022/04/26 16:28:05;;;;;;;9.60;6.07;;;;;;;;;;5037489;28;20045;-71
2022/04/26 16:30:32;;;;;;;11.05;6.45;;;;;;;;;;5035787;28;20394;-70
2022/04/26 16:32:58;;;;;;;7.88;5.25;;;;;;;;;;5031933;28;20044;-70
2022/04/26 16:35:24;;;;;;;11.10;6.05;;;;;;;;;;5035636;28;20033;-70
2022/04/26 16:37:50;;;;;;;10.45;5.32;;;;;;;;;;5035725;28;20036;-70
2022/04/26 16:40:15;;;;;;;10.20;5.85;;;;;;;;;;5038725;28;20464;-70
2022/04/26 16:42:41;;;;;;;9.85;5.43;;;;;;;;;;5030475;28;20040;-70
2022/04/26 16:45:08;;;;;;;7.72;5.07;;;;;;;;;;5035048;28;20009;-71
2022/04/26 16:47:34;;;;;;;7.57;5.28;;;;;;;;;;5030507;28;20040;-70
2022/04/26 16:49:59;;;;;;;9.35;5.50;;;;;;;;;;5029812;28;20044;-70
2022/04/26 16:52:25;;;;;;;10.23;5.60;;;;;;;;;;5044686;28;20032;-71
2022/04/26 16:54:50;;;;;;;9.75;6.00;;;;;;;;;;5036864;28;20025;-70
2022/04/26 16:57:17;;;;;;;10.48;5.90;;;;;;;;;;5039067;28;20027;-69
2022/04/26 16:59:42;;;;;;;8.38;5.43;;;;;;;;;;5026643;28;20053;-70
2022/04/26 17:02:08;;;;;;;9.85;5.78;;;;;;;;;;5043960;28;20057;-71
2022/04/26 17:04:33;;;;;;;9.27;5.82;;;;;;;;;;5034549;28;20037;-70
2022/04/26 17:06:59;;;;;;;10.50;5.45;;;;;;;;;;5034445;28;20042;-70
2022/04/26 17:09:24;;;;;;;6.53;4.50;;;;;;;;;;5029438;28;20025;-70
2022/04/26 17:11:50;;;;;;;9.88;5.50;;;;;;;;;;5036066;28;20102;-70
2022/04/26 17:14:17;;;;;;;11.93;5.53;;;;;;;;;;5032187;28;20425;-71
2022/04/26 17:16:46;;;;;;;11.30;5.50;;;;;;;;;;5040623;28;20040;-70
2022/04/26 17:19:14;;;;;;;8.02;5.32;;;;;;;;;;5046334;28;20052;-70
2022/04/26 17:21:41;;;;;;;12.93;5.70;;;;;;;;;;5038532;28;20056;-71
2022/04/26 17:25:13;;;;;;;9.38;5.22;;;;;;;;;;5040451;28;20028;-71
2022/04/26 17:26:53;;;;;;;9.55;5.82;;;;;;;;;;5041353;28;20051;-70
2022/04/26 17:29:21;;;;;;;9.35;5.32;;;;;;;;;;5043065;28;20449;-72
2022/04/26 17:31:51;;;;;;;9.38;4.57;;;;;;;;;;5042481;28;20037;-71
2022/04/26 17:34:18;;;;;;;9.02;5.55;;;;;;;;;;5031908;28;20413;-70
2022/04/26 17:36:43;;;;;;;9.00;5.50;;;;;;;;;;5033656;28;20026;-71
2022/04/26 17:39:10;;;;;;;9.15;5.45;;;;;;;;;;5046810;28;20009;-70
2022/04/26 17:41:36;;;;;;;10.63;5.80;;;;;;;;;;5040715;28;20131;-70
2022/04/26 17:44:01;;;;;;;9.35;5.25;;;;;;;;;;5041024;28;20029;-70
2022/04/26 17:46:26;;;;;;;7.93;5.05;;;;;;;;;;5037381;28;20695;-70
2022/04/26 17:48:53;;;;;;;9.65;5.60;;;;;;;;;;5041753;28;20406;-70
2022/04/26 17:51:18;;;;;;;12.93;5.20;;;;;;;;;;5034255;28;20056;-70
2022/04/26 17:56:30;;;;;;;8.63;4.63;;;;;;;;;;5039585;28;20051;-70
2022/04/26 17:58:57;;;;;;;9.82;4.90;;;;;;;;;;5036577;28;20044;-70
2022/04/26 18:01:22;;;;;;;16.63;5.05;;;;;;;;;;5037283;28;20033;-70
2022/04/26 18:03:50;;;;;;;10.38;4.57;;;;;;;;;;5038037;28;20021;-70
2022/04/26 18:06:19;;;;;;;7.65;4.60;;;;;;;;;;5036272;28;20041;-70
2022/04/26 18:08:44;;;;;;;8.50;4.80;;;;;;;;;;5039056;28;20068;-70
2022/04/26 18:11:10;;;;;;;6.78;4.25;;;;;;;;;;5040920;28;20073;-71
2022/04/26 18:13:36;;;;;;;7.22;4.20;;;;;;;;;;5046565;28;20049;-71
2022/04/26 18:16:02;;;;;;;7.53;3.72;;;;;;;;;;5033225;28;20463;-70
2022/04/26 18:18:30;;;;;;;7.57;4.32;;;;;;;;;;5036957;28;20029;-70
2022/04/26 18:20:58;;;;;;;7.65;4.30;;;;;;;;;;5035589;28;20033;-70
2022/04/26 18:23:24;;;;;;;5.63;3.78;;;;;;;;;;5039117;28;20033;-70
2022/04/26 18:28:35;;;;;;;7.80;3.95;;;;;;;;;;5042919;28;20039;-70
2022/04/26 18:31:00;;;;;;;5.10;3.35;;;;;;;;;;5035157;28;20038;-70
2022/04/26 18:33:26;;;;;;;10.85;3.80;;;;;;;;;;5035349;28;20029;-70
2022/04/26 18:35:51;;;;;;;6.38;3.80;;;;;;;;;;5032910;28;20045;-70
2022/04/26 18:38:17;;;;;;;12.13;3.97;;;;;;;;;;5033530;28;20044;-70
2022/04/26 18:40:43;;;;;;;5.40;3.28;;;;;;;;;;5034630;28;20042;-70
2022/04/26 18:43:08;;;;;;;7.28;3.45;;;;;;;;;;5038216;28;20411;-70
2022/04/26 18:45:34;;;;;;;5.05;2.83;;;;;;;;;;5033101;28;20026;-70
2022/04/26 18:47:59;;;;;;;6.68;3.38;;;;;;;;;;5033742;28;20061;-70
2022/04/26 18:50:25;;;;;;;4.68;3.53;;;;;;;;;;5031594;28;20041;-70
2022/04/26 18:52:50;;;;;;;5.95;3.70;;;;;;;;;;5031119;28;20123;-70
2022/04/26 18:55:16;;;;;;;5.95;4.10;;;;;;;;;;5035042;28;20515;-70
2022/04/26 18:57:41;;;;;;;8.43;4.15;;;;;;;;;;5032787;28;20024;-70
2022/04/26 19:00:10;;;;;;;6.88;3.40;;;;;;;;;;5040748;28;20027;-70
2022/04/26 19:02:37;;;;;;;6.35;3.45;;;;;;;;;;5034724;28;20056;-69
2022/04/26 19:05:03;;;;;;;10.68;4.28;;;;;;;;;;5037358;28;20037;-70
2022/04/26 19:07:28;;;;;;;8.73;4.10;;;;;;;;;;5034952;28;20040;-70
2022/04/26 19:12:39;;;;;;;8.05;3.83;;;;;;;;;;5035975;28;20031;-72
2022/04/26 19:15:05;;;;;;;6.43;4.32;;;;;;;;;;5033376;28;20037;-68
2022/04/26 19:17:30;;;;;;;7.65;3.78;;;;;;;;;;5033344;28;20028;-68
2022/04/26 19:19:55;;;;;;;8.57;4.25;;;;;;;;;;5029844;28;20565;-67